createdAt,value
2023-03-02T00:00:17.136Z,3.31
2023-03-02T00:01:17.128Z,3.31
2023-03-02T00:02:17.176Z,3.39
2023-03-02T00:03:17.140Z,3.45
2023-03-02T00:04:17.097Z,3.31
2023-03-02T00:05:17.086Z,3.40
2023-03-02T00:06:17.128Z,3.39
2023-03-02T00:07:17.084Z,3.35
2023-03-02T00:08:22.070Z,3.39
2023-03-02T00:09:17.101Z,3.32
2023-03-02T00:10:17.031Z,3.33
2023-03-02T00:11:17.022Z,3.33
2023-03-02T00:12:17.053Z,3.33
2023-03-02T00:13:17.017Z,3.32
2023-03-02T00:14:17.025Z,3.35
2023-03-02T00:15:16.979Z,3.32
2023-03-02T00:16:17.050Z,3.40
2023-03-02T00:17:16.963Z,3.35
2023-03-02T00:18:17.015Z,3.33
2023-03-02T00:19:21.955Z,3.32
2023-03-02T00:20:16.952Z,3.23
2023-03-02T00:21:16.936Z,3.29
2023-03-02T00:22:16.907Z,3.31
2023-03-02T00:23:16.917Z,3.29
2023-03-02T00:24:16.900Z,3.33
2023-03-02T00:25:16.878Z,3.36
2023-03-02T00:26:16.855Z,3.33
2023-03-02T00:27:16.868Z,3.24
2023-03-02T00:28:16.836Z,3.35
2023-03-02T00:29:16.852Z,3.35
2023-03-02T00:30:21.877Z,3.32
2023-03-02T00:31:16.917Z,3.45
2023-03-02T00:32:16.853Z,3.48
2023-03-02T00:33:16.785Z,3.52
2023-03-02T00:34:16.770Z,3.43
2023-03-02T00:35:16.756Z,3.52
2023-03-02T00:36:16.773Z,3.54
2023-03-02T00:37:16.732Z,3.54
2023-03-02T00:38:16.736Z,3.54
2023-03-02T00:39:16.711Z,3.57
2023-03-02T00:40:16.699Z,3.55
2023-03-02T00:41:21.808Z,3.66
2023-03-02T00:42:16.699Z,3.55
2023-03-02T00:43:16.688Z,3.60
2023-03-02T00:44:16.656Z,3.60
2023-03-02T00:45:16.676Z,3.61
2023-03-02T00:46:16.692Z,3.60
2023-03-02T00:47:16.624Z,3.62
2023-03-02T00:48:16.641Z,3.62
2023-03-02T00:49:16.599Z,3.62
2023-03-02T00:50:16.605Z,3.60
2023-03-02T00:51:16.579Z,3.58
2023-03-02T00:52:21.592Z,3.62
2023-03-02T00:53:16.569Z,3.54
2023-03-02T00:54:16.564Z,3.68
2023-03-02T00:55:16.536Z,3.62
2023-03-02T00:56:16.531Z,3.60
2023-03-02T00:57:16.511Z,3.61
2023-03-02T00:58:16.521Z,3.62
2023-03-02T00:59:16.496Z,3.58
2023-03-02T01:00:16.500Z,3.54
2023-03-02T01:01:18.602Z,3.54
2023-03-02T01:02:16.483Z,3.52
2023-03-02T01:03:21.501Z,3.54
2023-03-02T01:04:16.437Z,3.54
2023-03-02T01:05:16.426Z,3.57
2023-03-02T01:06:16.431Z,3.57
2023-03-02T01:07:16.414Z,3.58
2023-03-02T01:08:16.401Z,3.47
2023-03-02T01:09:16.384Z,3.57
2023-03-02T01:10:16.374Z,3.52
2023-03-02T01:11:16.379Z,3.55
2023-03-02T01:12:16.374Z,3.62
2023-03-02T01:13:16.352Z,3.50
2023-03-02T01:14:21.354Z,3.42
2023-03-02T01:15:16.329Z,3.47
2023-03-02T01:16:16.402Z,3.48
2023-03-02T01:17:16.377Z,3.40
2023-03-02T01:18:16.314Z,3.36
2023-03-02T01:19:16.278Z,3.31
2023-03-02T01:20:16.261Z,3.43
2023-03-02T01:21:16.260Z,3.32
2023-03-02T01:22:16.250Z,3.43
2023-03-02T01:23:16.245Z,3.36
2023-03-02T01:24:16.296Z,3.35
2023-03-02T01:25:21.238Z,3.31
2023-03-02T01:26:16.201Z,3.31
2023-03-02T01:27:16.190Z,3.35
2023-03-02T01:28:16.189Z,3.33
2023-03-02T01:29:16.170Z,3.33
2023-03-02T01:30:16.180Z,3.39
2023-03-02T01:31:16.195Z,3.33
2023-03-02T01:32:16.161Z,3.40
2023-03-02T01:33:16.206Z,3.31
2023-03-02T01:34:16.115Z,3.33
2023-03-02T01:35:16.123Z,3.35
2023-03-02T01:36:21.144Z,3.35
2023-03-02T01:37:16.079Z,3.33
2023-03-02T01:38:16.158Z,3.33
2023-03-02T01:39:16.224Z,3.36
2023-03-02T01:40:16.054Z,3.23
2023-03-02T01:41:16.049Z,3.32
2023-03-02T01:42:16.042Z,3.31
2023-03-02T01:43:16.025Z,3.32
2023-03-02T01:44:16.009Z,3.32
2023-03-02T01:45:15.997Z,3.26
2023-03-02T01:46:15.978Z,3.35
2023-03-02T01:47:20.994Z,3.32
2023-03-02T01:48:15.987Z,3.24
2023-03-02T01:49:15.974Z,3.18
2023-03-02T01:50:15.942Z,3.32
2023-03-02T01:51:16.011Z,3.21
2023-03-02T01:52:15.924Z,3.23
2023-03-02T01:53:15.939Z,3.43
2023-03-02T01:54:15.967Z,3.32
2023-03-02T01:55:15.886Z,3.32
2023-03-02T01:56:15.876Z,3.31
2023-03-02T01:57:15.861Z,3.33
2023-03-02T01:58:20.878Z,3.35
2023-03-02T01:59:15.841Z,3.36
2023-03-02T02:00:15.847Z,3.43
2023-03-02T02:01:15.967Z,3.32
2023-03-02T02:02:15.803Z,3.36
2023-03-02T02:03:15.797Z,3.40
2023-03-02T02:04:15.826Z,3.36
2023-03-02T02:05:15.805Z,3.33
2023-03-02T02:06:15.817Z,3.39
2023-03-02T02:07:15.748Z,3.39
2023-03-02T02:08:15.740Z,3.40
2023-03-02T02:09:20.761Z,3.42
2023-03-02T02:10:15.712Z,3.35
2023-03-02T02:11:15.706Z,3.32
2023-03-02T02:12:15.710Z,3.31
2023-03-02T02:13:15.684Z,3.40
2023-03-02T02:14:15.689Z,3.33
2023-03-02T02:15:15.659Z,3.33
2023-03-02T02:16:15.676Z,3.32
2023-03-02T02:17:15.638Z,3.29
2023-03-02T02:18:15.646Z,3.31
2023-03-02T02:19:15.627Z,3.32
2023-03-02T02:20:20.700Z,3.23
2023-03-02T02:21:15.605Z,3.18
2023-03-02T02:22:15.590Z,3.17
2023-03-02T02:23:15.574Z,3.05
2023-03-02T02:24:15.585Z,3.06
2023-03-02T02:25:15.563Z,3.10
2023-03-02T02:26:15.540Z,3.03
2023-03-02T02:27:15.529Z,2.96
2023-03-02T02:28:15.552Z,2.93
2023-03-02T02:29:15.518Z,2.92
2023-03-02T02:30:15.499Z,3.00
2023-03-02T02:31:20.577Z,3.02
2023-03-02T02:32:15.705Z,2.81
2023-03-02T02:33:15.462Z,2.77
2023-03-02T02:34:15.490Z,2.72
2023-03-02T02:35:15.442Z,2.69
2023-03-02T02:36:15.454Z,2.75
2023-03-02T02:37:15.428Z,2.71
2023-03-02T02:38:15.409Z,2.71
2023-03-02T02:39:15.393Z,2.71
2023-03-02T02:40:15.398Z,2.64
2023-03-02T02:41:15.408Z,2.56
2023-03-02T02:42:20.388Z,2.63
2023-03-02T02:43:15.383Z,2.56
2023-03-02T02:44:15.345Z,2.61
2023-03-02T02:45:15.339Z,2.54
2023-03-02T02:46:15.362Z,2.52
2023-03-02T02:47:15.309Z,2.56
2023-03-02T02:48:15.301Z,2.45
2023-03-02T02:49:15.310Z,2.42
2023-03-02T02:50:15.292Z,2.43
2023-03-02T02:51:15.266Z,2.28
2023-03-02T02:52:15.392Z,2.39
2023-03-02T02:53:20.283Z,2.39
2023-03-02T02:54:15.244Z,2.35
2023-03-02T02:55:15.269Z,2.30
2023-03-02T02:56:15.228Z,2.31
2023-03-02T02:57:15.201Z,2.24
2023-03-02T02:58:15.190Z,2.25
2023-03-02T02:59:15.178Z,2.27
2023-03-02T03:00:15.184Z,2.23
2023-03-02T03:01:15.280Z,2.21
2023-03-02T03:02:15.144Z,2.28
2023-03-02T03:03:15.138Z,2.20
2023-03-02T03:04:20.216Z,2.16
2023-03-02T03:05:15.152Z,2.17
2023-03-02T03:06:15.102Z,2.24
2023-03-02T03:07:15.109Z,2.18
2023-03-02T03:08:15.101Z,2.20
2023-03-02T03:09:15.081Z,2.10
2023-03-02T03:10:15.070Z,2.07
2023-03-02T03:11:15.046Z,2.09
2023-03-02T03:12:15.038Z,2.07
2023-03-02T03:13:15.063Z,2.12
2023-03-02T03:14:15.017Z,2.10
2023-03-02T03:15:20.057Z,2.06
2023-03-02T03:16:15.106Z,2.09
2023-03-02T03:17:14.994Z,2.03
2023-03-02T03:18:14.968Z,2.10
2023-03-02T03:19:14.980Z,2.06
2023-03-02T03:20:14.956Z,2.16
2023-03-02T03:21:14.943Z,2.10
2023-03-02T03:22:14.933Z,2.06
2023-03-02T03:23:14.915Z,2.12
2023-03-02T03:24:14.920Z,2.07
2023-03-02T03:25:14.909Z,2.07
2023-03-02T03:26:19.909Z,2.12
2023-03-02T03:27:14.867Z,2.07
2023-03-02T03:28:14.857Z,2.09
2023-03-02T03:29:14.844Z,2.06
2023-03-02T03:30:14.847Z,2.05
2023-03-02T03:31:14.906Z,2.05
2023-03-02T03:32:14.868Z,2.05
2023-03-02T03:33:14.802Z,2.00
2023-03-02T03:34:14.794Z,2.02
2023-03-02T03:35:14.781Z,1.99
2023-03-02T03:36:14.781Z,2.06
2023-03-02T03:37:19.818Z,2.05
2023-03-02T03:38:14.741Z,2.02
2023-03-02T03:39:14.737Z,2.02
2023-03-02T03:40:14.815Z,2.09
2023-03-02T03:41:14.738Z,1.98
2023-03-02T03:42:14.699Z,2.07
2023-03-02T03:43:14.711Z,2.02
2023-03-02T03:44:14.676Z,1.99
2023-03-02T03:45:14.670Z,1.99
2023-03-02T03:46:14.698Z,1.95
2023-03-02T03:47:14.648Z,1.98
2023-03-02T03:48:19.654Z,1.88
2023-03-02T03:49:14.646Z,1.91
2023-03-02T03:50:14.613Z,1.95
2023-03-02T03:51:14.613Z,1.98
2023-03-02T03:52:14.588Z,1.98
2023-03-02T03:53:14.586Z,1.88
2023-03-02T03:54:14.568Z,1.90
2023-03-02T03:55:14.585Z,1.95
2023-03-02T03:56:14.587Z,1.93
2023-03-02T03:57:14.537Z,1.91
2023-03-02T03:58:14.557Z,1.91
2023-03-02T03:59:19.536Z,1.90
2023-03-02T04:00:14.500Z,1.93
2023-03-02T04:01:14.541Z,1.98
2023-03-02T04:02:14.495Z,1.90
2023-03-02T04:03:14.469Z,1.91
2023-03-02T04:04:14.458Z,1.84
2023-03-02T04:05:14.443Z,1.86
2023-03-02T04:06:14.467Z,1.81
2023-03-02T04:07:14.487Z,1.84
2023-03-02T04:08:14.481Z,1.91
2023-03-02T04:09:14.450Z,1.91
2023-03-02T04:10:19.415Z,1.88
2023-03-02T04:11:14.404Z,1.95
2023-03-02T04:12:14.392Z,1.93
2023-03-02T04:13:14.384Z,1.90
2023-03-02T04:14:14.369Z,1.90
2023-03-02T04:15:14.338Z,1.90
2023-03-02T04:16:14.379Z,1.91
2023-03-02T04:17:14.317Z,1.93
2023-03-02T04:18:14.301Z,1.90
2023-03-02T04:19:14.291Z,1.93
2023-03-02T04:20:14.302Z,1.86
2023-03-02T04:21:19.310Z,1.87
2023-03-02T04:22:14.256Z,1.87
2023-03-02T04:23:14.246Z,1.95
2023-03-02T04:24:14.253Z,1.80
2023-03-02T04:25:14.228Z,1.91
2023-03-02T04:26:14.242Z,1.87
2023-03-02T04:27:14.248Z,1.83
2023-03-02T04:28:16.515Z,1.81
2023-03-02T04:29:14.191Z,1.80
2023-03-02T04:30:14.177Z,1.88
2023-03-02T04:31:14.241Z,1.88
2023-03-02T04:32:19.279Z,1.80
2023-03-02T04:33:14.181Z,1.91
2023-03-02T04:34:14.133Z,1.86
2023-03-02T04:35:14.124Z,1.80
2023-03-02T04:36:14.130Z,1.81
2023-03-02T04:37:14.105Z,1.72
2023-03-02T04:38:14.097Z,1.79
2023-03-02T04:39:14.092Z,1.79
2023-03-02T04:40:14.077Z,1.86
2023-03-02T04:41:14.131Z,1.77
2023-03-02T04:42:14.152Z,1.68
2023-03-02T04:43:19.084Z,1.70
2023-03-02T04:44:14.050Z,1.69
2023-03-02T04:45:14.038Z,1.76
2023-03-02T04:46:14.034Z,1.77
2023-03-02T04:47:14.000Z,1.63
2023-03-02T04:48:13.992Z,1.69
2023-03-02T04:49:13.980Z,1.66
2023-03-02T04:50:13.974Z,1.70
2023-03-02T04:51:14.005Z,1.52
2023-03-02T04:52:13.952Z,1.55
2023-03-02T04:53:13.934Z,1.59
2023-03-02T04:54:18.954Z,1.52
2023-03-02T04:55:13.918Z,1.41
2023-03-02T04:56:13.911Z,1.40
2023-03-02T04:57:13.919Z,1.45
2023-03-02T04:58:13.882Z,1.41
2023-03-02T04:59:13.888Z,1.42
2023-03-02T05:00:13.867Z,1.37
2023-03-02T05:01:13.863Z,1.37
2023-03-02T05:02:13.988Z,1.33
2023-03-02T05:03:13.848Z,1.34
2023-03-02T05:04:13.835Z,1.36
2023-03-02T05:05:18.837Z,1.36
2023-03-02T05:06:13.803Z,1.30
2023-03-02T05:07:13.784Z,1.33
2023-03-02T05:08:13.771Z,1.36
2023-03-02T05:09:13.786Z,1.37
2023-03-02T05:10:13.745Z,1.34
2023-03-02T05:11:13.756Z,1.36
2023-03-02T05:12:13.726Z,1.37
2023-03-02T05:13:13.718Z,1.34
2023-03-02T05:14:13.710Z,1.36
2023-03-02T05:15:13.733Z,1.33
2023-03-02T05:16:18.785Z,1.32
2023-03-02T05:17:13.681Z,1.36
2023-03-02T05:18:13.666Z,1.37
2023-03-02T05:19:13.649Z,1.36
2023-03-02T05:20:13.636Z,1.34
2023-03-02T05:21:13.646Z,1.32
2023-03-02T05:22:13.624Z,1.37
2023-03-02T05:23:13.621Z,1.29
2023-03-02T05:24:13.619Z,1.30
2023-03-02T05:25:13.582Z,1.18
2023-03-02T05:26:13.575Z,1.20
2023-03-02T05:27:18.626Z,1.30
2023-03-02T05:28:13.548Z,1.27
2023-03-02T05:29:13.545Z,1.33
2023-03-02T05:30:13.529Z,1.24
2023-03-02T05:31:13.623Z,1.33
2023-03-02T05:32:13.593Z,1.32
2023-03-02T05:33:13.538Z,1.37
2023-03-02T05:34:13.483Z,1.36
2023-03-02T05:35:14.254Z,1.32
2023-03-02T05:36:13.468Z,1.29
2023-03-02T05:37:13.461Z,1.29
2023-03-02T05:38:18.460Z,1.27
2023-03-02T05:39:13.468Z,1.33
2023-03-02T05:40:13.419Z,1.30
2023-03-02T05:41:13.406Z,1.37
2023-03-02T05:42:13.403Z,1.32
2023-03-02T05:43:13.383Z,1.30
2023-03-02T05:44:13.373Z,1.34
2023-03-02T05:45:13.387Z,1.36
2023-03-02T05:46:13.357Z,1.29
2023-03-02T05:47:13.451Z,1.34
2023-03-02T05:48:13.330Z,1.37
2023-03-02T05:49:18.346Z,1.34
2023-03-02T05:50:13.318Z,1.40
2023-03-02T05:51:13.340Z,1.41
2023-03-02T05:52:13.300Z,1.36
2023-03-02T05:53:13.288Z,1.42
2023-03-02T05:54:13.264Z,1.40
2023-03-02T05:55:13.271Z,1.40
2023-03-02T05:56:13.239Z,1.45
2023-03-02T05:57:13.272Z,1.44
2023-03-02T05:58:13.219Z,1.48
2023-03-02T05:59:13.208Z,1.37
2023-03-02T06:00:18.237Z,1.50
2023-03-02T06:01:15.387Z,1.44
2023-03-02T06:02:13.228Z,1.47
2023-03-02T06:03:13.293Z,1.41
2023-03-02T06:04:13.165Z,1.41
2023-03-02T06:05:13.140Z,1.58
2023-03-02T06:06:13.130Z,1.52
2023-03-02T06:07:13.126Z,1.48
2023-03-02T06:08:13.113Z,1.51
2023-03-02T06:09:13.121Z,1.58
2023-03-02T06:10:13.082Z,1.54
2023-03-02T06:11:18.102Z,1.63
2023-03-02T06:12:13.074Z,1.54
2023-03-02T06:13:13.051Z,1.60
2023-03-02T06:14:13.040Z,1.55
2023-03-02T06:15:13.051Z,1.59
2023-03-02T06:16:13.094Z,1.59
2023-03-02T06:17:13.041Z,1.69
2023-03-02T06:18:12.998Z,1.66
2023-03-02T06:19:13.110Z,1.66
2023-03-02T06:20:12.995Z,1.70
2023-03-02T06:21:12.988Z,1.68
2023-03-02T06:22:17.985Z,1.72
2023-03-02T06:23:12.945Z,1.68
2023-03-02T06:24:12.933Z,1.69
2023-03-02T06:25:12.921Z,1.80
2023-03-02T06:26:12.938Z,1.79
2023-03-02T06:27:12.934Z,1.81
2023-03-02T06:28:12.893Z,1.80
2023-03-02T06:29:13.353Z,1.81
2023-03-02T06:30:12.871Z,1.90
2023-03-02T06:31:12.854Z,1.86
2023-03-02T06:32:13.004Z,1.87
2023-03-02T06:33:17.881Z,1.90
2023-03-02T06:34:12.821Z,1.91
2023-03-02T06:35:12.896Z,1.88
2023-03-02T06:36:12.968Z,1.99
2023-03-02T06:37:12.813Z,2.03
2023-03-02T06:38:12.777Z,2.00
2023-03-02T06:39:12.783Z,2.07
2023-03-02T06:40:12.755Z,2.03
2023-03-02T06:41:12.751Z,2.06
2023-03-02T06:42:12.750Z,2.14
2023-03-02T06:43:12.723Z,2.12
2023-03-02T06:44:17.745Z,2.12
2023-03-02T06:45:12.754Z,2.27
2023-03-02T06:46:12.798Z,2.25
2023-03-02T06:47:12.682Z,2.18
2023-03-02T06:48:12.678Z,2.21
2023-03-02T06:49:14.190Z,2.30
2023-03-02T06:50:12.654Z,2.24
2023-03-02T06:51:12.735Z,2.30
2023-03-02T06:52:12.629Z,2.27
2023-03-02T06:53:12.623Z,2.30
2023-03-02T06:54:12.605Z,2.27
2023-03-02T06:55:17.618Z,2.36
2023-03-02T06:56:12.583Z,2.38
2023-03-02T06:57:12.593Z,2.38
2023-03-02T06:58:12.574Z,2.31
2023-03-02T06:59:12.548Z,2.36
2023-03-02T07:00:12.538Z,2.34
2023-03-02T07:01:12.592Z,2.31
2023-03-02T07:02:12.536Z,2.34
2023-03-02T07:03:12.543Z,2.42
2023-03-02T07:04:12.495Z,2.41
2023-03-02T07:05:12.497Z,2.42
2023-03-02T07:06:17.516Z,2.39
2023-03-02T07:07:12.461Z,2.42
2023-03-02T07:08:12.456Z,2.56
2023-03-02T07:09:12.466Z,2.57
2023-03-02T07:10:12.433Z,2.54
2023-03-02T07:11:12.414Z,2.60
2023-03-02T07:12:12.406Z,2.60
2023-03-02T07:13:12.407Z,2.61
2023-03-02T07:14:12.386Z,2.63
2023-03-02T07:15:12.488Z,2.59
2023-03-02T07:16:12.366Z,2.54
2023-03-02T07:17:17.379Z,2.54
2023-03-02T07:18:12.351Z,2.60
2023-03-02T07:19:12.328Z,2.71
2023-03-02T07:20:12.320Z,2.74
2023-03-02T07:21:12.331Z,2.82
2023-03-02T07:22:12.316Z,2.79
2023-03-02T07:23:12.356Z,2.90
2023-03-02T07:24:12.273Z,2.90
2023-03-02T07:25:12.276Z,2.92
2023-03-02T07:26:12.248Z,3.06
2023-03-02T07:27:12.256Z,3.05
2023-03-02T07:28:17.264Z,3.10
2023-03-02T07:29:12.226Z,3.18
2023-03-02T07:30:12.219Z,3.23
2023-03-02T07:31:12.262Z,3.21
2023-03-02T07:32:12.724Z,3.29
2023-03-02T07:33:12.212Z,3.21
2023-03-02T07:34:12.169Z,3.32
2023-03-02T07:35:12.166Z,3.40
2023-03-02T07:36:12.158Z,3.43
2023-03-02T07:37:12.127Z,3.47
2023-03-02T07:38:12.181Z,3.54
2023-03-02T07:39:17.158Z,3.55
2023-03-02T07:40:12.110Z,3.55
2023-03-02T07:41:12.086Z,3.48
2023-03-02T07:42:12.073Z,3.50
2023-03-02T07:43:12.074Z,3.57
2023-03-02T07:44:12.054Z,3.58
2023-03-02T07:45:12.067Z,3.65
2023-03-02T07:46:12.082Z,3.60
2023-03-02T07:47:12.029Z,3.70
2023-03-02T07:48:12.021Z,3.72
2023-03-02T07:49:11.998Z,3.66
2023-03-02T07:50:17.026Z,3.72
2023-03-02T07:51:11.987Z,3.70
2023-03-02T07:52:11.968Z,3.72
2023-03-02T07:53:11.963Z,3.68
2023-03-02T07:54:11.989Z,3.76
2023-03-02T07:55:11.947Z,3.76
2023-03-02T07:56:11.936Z,3.80
2023-03-02T07:57:11.926Z,3.83
2023-03-02T07:58:11.909Z,3.94
2023-03-02T07:59:11.900Z,3.96
2023-03-02T08:00:11.893Z,4.02
2023-03-02T08:01:16.892Z,3.98
2023-03-02T08:02:11.890Z,4.04
2023-03-02T08:03:11.958Z,4.06
2023-03-02T08:04:11.835Z,4.08
2023-03-02T08:05:11.826Z,4.16
2023-03-02T08:06:11.838Z,4.23
2023-03-02T08:07:11.803Z,4.27
2023-03-02T08:08:11.798Z,4.29
2023-03-02T08:09:11.802Z,4.34
2023-03-02T08:10:11.784Z,4.30
2023-03-02T08:11:11.760Z,4.45
2023-03-02T08:12:16.774Z,4.47
2023-03-02T08:13:11.751Z,4.51
2023-03-02T08:14:11.726Z,4.44
2023-03-02T08:15:11.744Z,4.52
2023-03-02T08:16:11.722Z,4.60
2023-03-02T08:17:11.696Z,4.67
2023-03-02T08:18:11.683Z,4.67
2023-03-02T08:19:11.678Z,4.66
2023-03-02T08:20:11.667Z,4.70
2023-03-02T08:21:11.679Z,4.80
2023-03-02T08:22:11.636Z,4.80
2023-03-02T08:23:16.647Z,4.84
2023-03-02T08:24:11.627Z,4.96
2023-03-02T08:25:11.627Z,4.91
2023-03-02T08:26:13.832Z,5.00
2023-03-02T08:27:11.603Z,5.20
2023-03-02T08:28:11.567Z,5.20
2023-03-02T08:29:11.568Z,5.31
2023-03-02T08:30:11.545Z,5.40
2023-03-02T08:31:11.594Z,5.54
2023-03-02T08:32:11.763Z,5.75
2023-03-02T08:33:11.531Z,6.09
2023-03-02T08:34:16.540Z,6.62
2023-03-02T08:35:11.491Z,6.92
2023-03-02T08:36:11.553Z,7.15
2023-03-02T08:37:11.468Z,7.60
2023-03-02T08:38:11.461Z,7.83
2023-03-02T08:39:11.501Z,7.83
2023-03-02T08:40:11.439Z,8.04
2023-03-02T08:41:11.428Z,8.43
2023-03-02T08:42:11.448Z,8.77
2023-03-02T08:43:11.408Z,9.04
2023-03-02T08:44:11.398Z,9.17
2023-03-02T08:45:16.443Z,9.21
2023-03-02T08:46:11.464Z,9.01
2023-03-02T08:47:11.364Z,9.04
2023-03-02T08:48:11.350Z,9.21
2023-03-02T08:49:11.339Z,9.40
2023-03-02T08:50:11.325Z,9.48
2023-03-02T08:51:11.328Z,9.35
2023-03-02T08:52:11.299Z,9.23
2023-03-02T08:53:11.284Z,8.91
2023-03-02T08:54:11.292Z,8.83
2023-03-02T08:55:11.301Z,8.73
2023-03-02T08:56:16.276Z,8.83
2023-03-02T08:57:11.267Z,8.92
2023-03-02T08:58:11.255Z,9.17
2023-03-02T08:59:11.243Z,9.20
2023-03-02T09:00:11.206Z,9.46
2023-03-02T09:01:11.247Z,9.76
2023-03-02T09:02:11.187Z,9.86
2023-03-02T09:03:11.196Z,9.86
2023-03-02T09:04:11.253Z,10.14
2023-03-02T09:05:11.212Z,10.44
2023-03-02T09:06:11.138Z,10.60
2023-03-02T09:07:16.606Z,10.67
2023-03-02T09:08:11.127Z,10.66
2023-03-02T09:09:11.183Z,10.68
2023-03-02T09:10:11.099Z,10.73
2023-03-02T09:11:11.088Z,10.73
2023-03-02T09:12:11.079Z,10.78
2023-03-02T09:13:11.063Z,10.84
2023-03-02T09:14:11.247Z,10.86
2023-03-02T09:15:11.047Z,11.00
2023-03-02T09:16:11.041Z,10.86
2023-03-02T09:17:11.015Z,10.53
2023-03-02T09:18:16.038Z,10.12
2023-03-02T09:19:11.004Z,9.84
2023-03-02T09:20:10.992Z,9.79
2023-03-02T09:21:11.016Z,9.56
2023-03-02T09:22:10.961Z,9.48
2023-03-02T09:23:10.951Z,9.40
2023-03-02T09:24:10.964Z,9.53
2023-03-02T09:25:10.932Z,9.76
2023-03-02T09:26:10.921Z,10.14
2023-03-02T09:27:10.931Z,10.41
2023-03-02T09:28:10.898Z,10.55
2023-03-02T09:29:15.964Z,10.55
2023-03-02T09:30:10.877Z,10.81
2023-03-02T09:31:10.862Z,11.11
2023-03-02T09:32:11.241Z,11.17
2023-03-02T09:33:10.912Z,11.29
2023-03-02T09:34:10.865Z,11.39
2023-03-02T09:35:10.824Z,11.49
2023-03-02T09:36:10.815Z,11.19
2023-03-02T09:37:10.801Z,10.99
2023-03-02T09:38:10.856Z,10.82
2023-03-02T09:39:10.869Z,10.59
2023-03-02T09:40:15.812Z,10.51
2023-03-02T09:41:10.751Z,10.64
2023-03-02T09:42:10.753Z,10.51
2023-03-02T09:43:10.728Z,10.60
2023-03-02T09:44:10.722Z,10.53
2023-03-02T09:45:10.755Z,10.68
2023-03-02T09:46:10.768Z,10.56
2023-03-02T09:47:10.696Z,10.67
2023-03-02T09:48:10.684Z,10.64
2023-03-02T09:49:10.667Z,10.76
2023-03-02T09:50:10.677Z,10.85
2023-03-02T09:51:15.687Z,10.91
2023-03-02T09:52:10.701Z,10.97
2023-03-02T09:53:10.623Z,11.02
2023-03-02T09:54:10.644Z,11.06
2023-03-02T09:55:10.627Z,11.11
2023-03-02T09:56:10.584Z,11.18
2023-03-02T09:57:10.613Z,11.40
2023-03-02T09:58:10.570Z,11.39
2023-03-02T09:59:10.549Z,11.49
2023-03-02T10:00:19.191Z,11.60
2023-03-02T10:01:10.549Z,11.78
2023-03-02T10:02:15.546Z,11.95
2023-03-02T10:03:16.985Z,12.24
2023-03-02T10:04:10.605Z,12.27
2023-03-02T10:05:10.486Z,12.12
2023-03-02T10:06:10.477Z,12.21
2023-03-02T10:07:10.458Z,12.38
2023-03-02T10:08:10.458Z,12.27
2023-03-02T10:09:10.448Z,11.96
2023-03-02T10:10:10.435Z,11.95
2023-03-02T10:11:10.415Z,11.98
2023-03-02T10:12:10.429Z,11.98
2023-03-02T10:13:15.414Z,12.07
2023-03-02T10:14:10.383Z,11.98
2023-03-02T10:15:10.399Z,11.96
2023-03-02T10:16:10.533Z,11.96
2023-03-02T10:17:10.372Z,12.13
2023-03-02T10:18:10.351Z,12.21
2023-03-02T10:19:10.325Z,12.35
2023-03-02T10:20:10.332Z,12.23
2023-03-02T10:21:10.318Z,12.13
2023-03-02T10:22:10.292Z,11.88
2023-03-02T10:23:10.278Z,11.57
2023-03-02T10:24:15.294Z,11.67
2023-03-02T10:25:10.264Z,11.75
2023-03-02T10:26:10.252Z,11.65
2023-03-02T10:27:10.262Z,11.76
2023-03-02T10:28:10.223Z,11.82
2023-03-02T10:29:10.213Z,11.67
2023-03-02T10:30:10.224Z,11.40
2023-03-02T10:31:10.290Z,11.28
2023-03-02T10:32:10.238Z,11.35
2023-03-02T10:33:10.196Z,11.32
2023-03-02T10:34:10.160Z,11.24
2023-03-02T10:35:15.180Z,11.15
2023-03-02T10:36:10.135Z,11.18
2023-03-02T10:37:10.132Z,11.14
2023-03-02T10:38:10.115Z,11.25
2023-03-02T10:39:10.164Z,11.22
2023-03-02T10:40:10.093Z,11.42
2023-03-02T10:41:10.083Z,11.88
2023-03-02T10:42:10.108Z,12.14
2023-03-02T10:43:10.057Z,12.24
2023-03-02T10:44:10.044Z,12.46
2023-03-02T10:45:10.048Z,12.74
2023-03-02T10:46:15.084Z,12.83
2023-03-02T10:47:10.008Z,12.87
2023-03-02T10:48:10.007Z,13.01
2023-03-02T10:49:10.019Z,12.82
2023-03-02T10:50:09.986Z,12.87
2023-03-02T10:51:10.003Z,13.04
2023-03-02T10:52:09.954Z,13.03
2023-03-02T10:53:09.945Z,13.45
2023-03-02T10:54:09.935Z,13.39
2023-03-02T10:55:09.917Z,13.51
2023-03-02T10:56:09.922Z,13.64
2023-03-02T10:57:14.982Z,13.46
2023-03-02T10:58:09.899Z,13.38
2023-03-02T10:59:09.873Z,13.17
2023-03-02T11:00:09.862Z,13.36
2023-03-02T11:01:09.915Z,13.32
2023-03-02T11:02:09.847Z,13.29
2023-03-02T11:03:09.839Z,13.28
2023-03-02T11:04:09.875Z,13.38
2023-03-02T11:05:09.833Z,13.22
2023-03-02T11:06:09.804Z,12.72
2023-03-02T11:07:09.786Z,12.50
2023-03-02T11:08:14.791Z,12.34
2023-03-02T11:09:09.779Z,12.10
2023-03-02T11:10:09.748Z,12.24
2023-03-02T11:11:09.749Z,12.29
2023-03-02T11:12:09.798Z,12.29
2023-03-02T11:13:09.719Z,12.42
2023-03-02T11:14:09.702Z,12.60
2023-03-02T11:15:09.714Z,12.72
2023-03-02T11:16:09.742Z,13.04
2023-03-02T11:17:09.675Z,13.20
2023-03-02T11:18:09.656Z,13.32
2023-03-02T11:19:14.667Z,13.64
2023-03-02T11:20:09.642Z,13.84
2023-03-02T11:21:09.665Z,13.95
2023-03-02T11:22:09.612Z,13.82
2023-03-02T11:23:09.605Z,13.60
2023-03-02T11:24:10.515Z,13.38
2023-03-02T11:25:09.576Z,13.33
2023-03-02T11:26:09.572Z,13.08
2023-03-02T11:27:09.567Z,13.07
2023-03-02T11:28:09.548Z,13.38
2023-03-02T11:29:09.531Z,13.69
2023-03-02T11:30:14.541Z,13.66
2023-03-02T11:31:09.573Z,13.38
2023-03-02T11:32:09.553Z,13.03
2023-03-02T11:33:09.549Z,12.82
2023-03-02T11:34:17.323Z,12.50
2023-03-02T11:35:09.478Z,12.38
2023-03-02T11:36:09.450Z,12.46
2023-03-02T11:37:09.475Z,12.20
2023-03-02T11:38:09.451Z,12.10
2023-03-02T11:39:09.423Z,11.96
2023-03-02T11:40:09.427Z,12.04
2023-03-02T11:41:14.417Z,12.34
2023-03-02T11:42:09.435Z,12.67
2023-03-02T11:43:09.376Z,13.05
2023-03-02T11:44:09.362Z,13.30
2023-03-02T11:45:09.350Z,13.22
2023-03-02T11:46:21.154Z,13.39
2023-03-02T11:47:09.463Z,13.52
2023-03-02T11:48:09.347Z,13.54
2023-03-02T11:49:09.305Z,13.77
2023-03-02T11:50:09.297Z,14.15
2023-03-02T11:51:09.285Z,14.69
2023-03-02T11:52:16.031Z,14.89
2023-03-02T11:53:09.288Z,15.21
2023-03-02T11:54:09.267Z,15.20
2023-03-02T11:55:09.239Z,15.44
2023-03-02T11:56:09.228Z,15.20
2023-03-02T11:57:09.232Z,15.10
2023-03-02T11:58:09.212Z,14.91
2023-03-02T11:59:09.216Z,14.88
2023-03-02T12:00:09.192Z,14.61
2023-03-02T12:01:09.206Z,14.25
2023-03-02T12:02:09.210Z,14.06
2023-03-02T12:03:14.172Z,13.97
2023-03-02T12:04:09.136Z,13.84
2023-03-02T12:05:09.201Z,13.49
2023-03-02T12:06:09.117Z,13.49
2023-03-02T12:07:09.133Z,13.52
2023-03-02T12:08:09.118Z,13.49
2023-03-02T12:09:09.178Z,13.54
2023-03-02T12:10:09.072Z,13.69
2023-03-02T12:11:09.104Z,13.87
2023-03-02T12:12:09.053Z,14.03
2023-03-02T12:13:09.051Z,13.84
2023-03-02T12:14:14.050Z,13.91
2023-03-02T12:15:09.022Z,13.85
2023-03-02T12:16:09.094Z,13.82
2023-03-02T12:17:09.045Z,13.71
2023-03-02T12:18:09.000Z,13.48
2023-03-02T12:19:08.981Z,13.66
2023-03-02T12:20:08.961Z,13.81
2023-03-02T12:21:08.973Z,13.81
2023-03-02T12:22:08.965Z,13.66
2023-03-02T12:23:08.985Z,13.69
2023-03-02T12:24:08.938Z,13.46
2023-03-02T12:25:13.931Z,13.75
2023-03-02T12:26:08.926Z,13.77
2023-03-02T12:27:08.888Z,13.85
2023-03-02T12:28:08.881Z,14.06
2023-03-02T12:29:08.887Z,14.24
2023-03-02T12:30:08.880Z,14.33
2023-03-02T12:31:08.912Z,14.12
2023-03-02T12:32:08.989Z,13.77
2023-03-02T12:33:08.840Z,13.57
2023-03-02T12:34:08.847Z,13.63
2023-03-02T12:35:08.829Z,13.78
2023-03-02T12:36:13.805Z,14.07
2023-03-02T12:37:08.880Z,14.40
2023-03-02T12:38:08.880Z,14.77
2023-03-02T12:39:08.750Z,15.31
2023-03-02T12:40:08.763Z,16.00
2023-03-02T12:41:08.758Z,16.33
2023-03-02T12:42:08.751Z,16.64
2023-03-02T12:43:08.814Z,16.89
2023-03-02T12:44:08.790Z,17.25
2023-03-02T12:45:08.742Z,17.19
2023-03-02T12:46:08.712Z,16.93
2023-03-02T12:47:14.016Z,16.53
2023-03-02T12:48:08.825Z,15.59
2023-03-02T12:49:09.861Z,15.14
2023-03-02T12:50:08.625Z,15.14
2023-03-02T12:51:08.641Z,15.28
2023-03-02T12:52:08.781Z,15.27
2023-03-02T12:53:08.625Z,15.43
2023-03-02T12:54:08.597Z,15.56
2023-03-02T12:55:08.580Z,15.38
2023-03-02T12:56:08.657Z,15.35
2023-03-02T12:57:08.572Z,15.51
2023-03-02T12:58:13.572Z,15.68
2023-03-02T12:59:08.532Z,16.00
2023-03-02T13:00:08.525Z,16.17
2023-03-02T13:01:08.559Z,16.57
2023-03-02T13:02:08.496Z,16.76
2023-03-02T13:03:08.493Z,16.96
2023-03-02T13:04:08.508Z,17.16
2023-03-02T13:05:08.500Z,17.37
2023-03-02T13:06:08.449Z,17.56
2023-03-02T13:07:08.453Z,18.10
2023-03-02T13:08:08.449Z,18.45
2023-03-02T13:09:13.442Z,18.20
2023-03-02T13:10:08.493Z,17.96